Sabiha Gokcen, Turkey
Alba: 7:19 AM UTC2
Tramonto: 5:09 PM UTC2
 Lat: 40.90N, Lon: 29.30E
ICAO Used: LTFJ
Condizioni Meteo Attuali Aggiornate: 25.01.21 - 22:20 UTC2
Quasi Sereno
Quasi Sereno
Sereno
Quasi Sereno
Temp: 12°C
Umidita': 77%
Direz/Vel. Vento: SSW 7 / KT raffiche
Pressione: 1010 hPa
Punto di rugiada: 8°C
Temperatura percepita: 11°C
Visibilitą: >10 KM (ottima)
Temperatura percepita in
presenza di vento (Wind Chill)
:
10°C
T. max (ultime 24 ore): 16°C
T. min (ultime 24 ore): 9°C


METAR ORIGINALE
LTFJ 252220Z 21007KT CAVOK 12/08 Q1010 NOSIG RMK RWY24 21006KT



[ Indietro ]


Elaborazione dati by Datameteo.com - Lrc srl Copyright ©, All rights reserved.